sensor_id;sensor_type;location;lat;lon;timestamp;P1;durP1;ratioP1;P2;durP2;ratioP2
8312;SDS011;4194;43.408;24.626;2023-08-07T00:00:34;2.67;;;2.47;;
8312;SDS011;4194;43.408;24.626;2023-08-07T00:03:00;2.37;;;2.27;;
8312;SDS011;4194;43.408;24.626;2023-08-07T00:05:25;2.60;;;2.40;;
8312;SDS011;4194;43.408;24.626;2023-08-07T00:07:51;3.27;;;2.53;;
8312;SDS011;4194;43.408;24.626;2023-08-07T00:10:17;4.00;;;2.40;;
8312;SDS011;4194;43.408;24.626;2023-08-07T00:12:43;3.67;;;2.67;;
8312;SDS011;4194;43.408;24.626;2023-08-07T00:15:08;4.60;;;2.60;;
8312;SDS011;4194;43.408;24.626;2023-08-07T00:17:35;2.97;;;2.77;;
8312;SDS011;4194;43.408;24.626;2023-08-07T00:20:00;3.27;;;2.97;;
8312;SDS011;4194;43.408;24.626;2023-08-07T00:22:26;3.30;;;3.00;;
8312;SDS011;4194;43.408;24.626;2023-08-07T00:24:52;4.27;;;3.17;;
8312;SDS011;4194;43.408;24.626;2023-08-07T00:27:18;3.97;;;3.30;;
8312;SDS011;4194;43.408;24.626;2023-08-07T00:29:43;3.63;;;2.97;;
8312;SDS011;4194;43.408;24.626;2023-08-07T00:32:09;4.07;;;3.77;;
8312;SDS011;4194;43.408;24.626;2023-08-07T00:34:35;3.33;;;3.13;;
8312;SDS011;4194;43.408;24.626;2023-08-07T00:37:00;5.43;;;3.43;;
8312;SDS011;4194;43.408;24.626;2023-08-07T00:39:26;3.70;;;3.40;;
8312;SDS011;4194;43.408;24.626;2023-08-07T00:41:52;4.43;;;3.90;;
8312;SDS011;4194;43.408;24.626;2023-08-07T00:44:17;4.23;;;3.80;;
8312;SDS011;4194;43.408;24.626;2023-08-07T00:46:43;4.60;;;4.20;;
8312;SDS011;4194;43.408;24.626;2023-08-07T00:49:09;4.00;;;3.70;;
8312;SDS011;4194;43.408;24.626;2023-08-07T00:51:37;4.40;;;4.10;;
8312;SDS011;4194;43.408;24.626;2023-08-07T00:54:03;4.43;;;4.10;;
8312;SDS011;4194;43.408;24.626;2023-08-07T00:56:30;4.30;;;3.97;;
8312;SDS011;4194;43.408;24.626;2023-08-07T00:58:57;5.33;;;4.30;;
8312;SDS011;4194;43.408;24.626;2023-08-07T01:01:24;5.10;;;4.70;;
8312;SDS011;4194;43.408;24.626;2023-08-07T01:03:50;4.77;;;4.47;;
8312;SDS011;4194;43.408;24.626;2023-08-07T01:06:16;5.37;;;4.70;;
8312;SDS011;4194;43.408;24.626;2023-08-07T01:08:42;5.10;;;4.70;;
8312;SDS011;4194;43.408;24.626;2023-08-07T01:14:05;5.37;;;4.97;;
8312;SDS011;4194;43.408;24.626;2023-08-07T01:16:52;5.17;;;4.70;;
8312;SDS011;4194;43.408;24.626;2023-08-07T01:19:27;5.97;;;5.47;;
8312;SDS011;4194;43.408;24.626;2023-08-07T01:24:34;6.70;;;4.90;;
8312;SDS011;4194;43.408;24.626;2023-08-07T01:32:14;6.20;;;5.60;;
8312;SDS011;4194;43.408;24.626;2023-08-07T01:34:44;5.77;;;5.20;;
8312;SDS011;4194;43.408;24.626;2023-08-07T01:37:12;5.40;;;5.00;;
8312;SDS011;4194;43.408;24.626;2023-08-07T01:39:39;5.73;;;5.33;;
8312;SDS011;4194;43.408;24.626;2023-08-07T01:42:06;5.87;;;5.27;;
8312;SDS011;4194;43.408;24.626;2023-08-07T01:44:32;7.27;;;5.37;;
8312;SDS011;4194;43.408;24.626;2023-08-07T01:46:58;5.87;;;5.27;;
8312;SDS011;4194;43.408;24.626;2023-08-07T01:49:24;5.53;;;5.03;;
8312;SDS011;4194;43.408;24.626;2023-08-07T01:51:50;6.17;;;5.57;;
8312;SDS011;4194;43.408;24.626;2023-08-07T01:54:15;6.23;;;5.20;;
8312;SDS011;4194;43.408;24.626;2023-08-07T01:56:41;6.07;;;5.43;;
8312;SDS011;4194;43.408;24.626;2023-08-07T01:59:06;5.60;;;5.20;;
8312;SDS011;4194;43.408;24.626;2023-08-07T02:01:32;5.80;;;5.30;;
8312;SDS011;4194;43.408;24.626;2023-08-07T02:03:58;6.77;;;5.43;;
8312;SDS011;4194;43.408;24.626;2023-08-07T02:06:23;5.60;;;5.20;;
8312;SDS011;4194;43.408;24.626;2023-08-07T02:08:49;6.17;;;5.47;;
8312;SDS011;4194;43.408;24.626;2023-08-07T02:11:15;6.30;;;5.80;;
8312;SDS011;4194;43.408;24.626;2023-08-07T02:13:40;6.17;;;5.57;;
8312;SDS011;4194;43.408;24.626;2023-08-07T02:16:06;6.47;;;5.77;;
8312;SDS011;4194;43.408;24.626;2023-08-07T02:18:31;6.40;;;5.60;;
8312;SDS011;4194;43.408;24.626;2023-08-07T02:20:57;6.03;;;5.53;;
8312;SDS011;4194;43.408;24.626;2023-08-07T02:23:23;6.17;;;5.67;;
8312;SDS011;4194;43.408;24.626;2023-08-07T02:25:48;6.90;;;6.20;;
8312;SDS011;4194;43.408;24.626;2023-08-07T02:28:14;7.23;;;6.10;;
8312;SDS011;4194;43.408;24.626;2023-08-07T02:30:40;6.43;;;5.83;;
8312;SDS011;4194;43.408;24.626;2023-08-07T02:33:05;7.17;;;5.60;;
8312;SDS011;4194;43.408;24.626;2023-08-07T02:35:31;5.97;;;5.47;;
8312;SDS011;4194;43.408;24.626;2023-08-07T02:37:57;6.43;;;5.53;;
8312;SDS011;4194;43.408;24.626;2023-08-07T02:40:22;6.67;;;5.40;;
8312;SDS011;4194;43.408;24.626;2023-08-07T02:42:48;5.73;;;5.20;;
8312;SDS011;4194;43.408;24.626;2023-08-07T02:45:14;5.80;;;5.20;;
8312;SDS011;4194;43.408;24.626;2023-08-07T02:47:39;5.73;;;5.20;;
8312;SDS011;4194;43.408;24.626;2023-08-07T02:50:05;5.70;;;5.20;;
8312;SDS011;4194;43.408;24.626;2023-08-07T02:52:31;8.10;;;5.60;;
8312;SDS011;4194;43.408;24.626;2023-08-07T02:54:57;6.17;;;5.40;;
8312;SDS011;4194;43.408;24.626;2023-08-07T02:57:23;5.83;;;5.20;;
8312;SDS011;4194;43.408;24.626;2023-08-07T02:59:50;7.50;;;5.60;;
8312;SDS011;4194;43.408;24.626;2023-08-07T03:02:15;5.33;;;4.93;;
8312;SDS011;4194;43.408;24.626;2023-08-07T03:04:41;5.97;;;5.47;;
8312;SDS011;4194;43.408;24.626;2023-08-07T03:07:07;5.50;;;5.10;;
8312;SDS011;4194;43.408;24.626;2023-08-07T03:09:33;5.80;;;5.27;;
8312;SDS011;4194;43.408;24.626;2023-08-07T03:11:58;5.90;;;5.40;;
8312;SDS011;4194;43.408;24.626;2023-08-07T03:14:28;5.90;;;5.40;;
8312;SDS011;4194;43.408;24.626;2023-08-07T03:16:54;5.80;;;5.23;;
8312;SDS011;4194;43.408;24.626;2023-08-07T03:19:20;6.07;;;5.03;;
8312;SDS011;4194;43.408;24.626;2023-08-07T03:21:46;7.10;;;5.57;;
8312;SDS011;4194;43.408;24.626;2023-08-07T03:24:12;5.27;;;4.77;;
8312;SDS011;4194;43.408;24.626;2023-08-07T03:26:38;5.90;;;5.50;;
8312;SDS011;4194;43.408;24.626;2023-08-07T03:29:03;5.60;;;5.10;;
8312;SDS011;4194;43.408;24.626;2023-08-07T03:31:29;5.67;;;5.17;;
8312;SDS011;4194;43.408;24.626;2023-08-07T03:33:55;5.90;;;5.37;;
8312;SDS011;4194;43.408;24.626;2023-08-07T03:36:21;5.20;;;4.80;;
8312;SDS011;4194;43.408;24.626;2023-08-07T03:38:47;5.77;;;5.27;;
8312;SDS011;4194;43.408;24.626;2023-08-07T03:41:12;5.20;;;4.80;;
8312;SDS011;4194;43.408;24.626;2023-08-07T03:43:38;5.87;;;4.87;;
8312;SDS011;4194;43.408;24.626;2023-08-07T03:46:04;4.87;;;4.47;;
8312;SDS011;4194;43.408;24.626;2023-08-07T03:48:29;5.27;;;4.77;;
8312;SDS011;4194;43.408;24.626;2023-08-07T03:51:05;7.33;;;4.80;;
8312;SDS011;4194;43.408;24.626;2023-08-07T03:53:33;5.40;;;4.93;;
8312;SDS011;4194;43.408;24.626;2023-08-07T03:55:59;6.23;;;5.20;;
8312;SDS011;4194;43.408;24.626;2023-08-07T03:58:24;5.97;;;5.30;;
8312;SDS011;4194;43.408;24.626;2023-08-07T04:00:50;5.03;;;4.53;;
8312;SDS011;4194;43.408;24.626;2023-08-07T04:03:18;5.40;;;5.00;;
8312;SDS011;4194;43.408;24.626;2023-08-07T04:05:46;4.90;;;4.50;;
8312;SDS011;4194;43.408;24.626;2023-08-07T04:08:16;5.43;;;4.93;;
8312;SDS011;4194;43.408;24.626;2023-08-07T04:10:42;5.40;;;4.90;;
8312;SDS011;4194;43.408;24.626;2023-08-07T04:13:07;4.93;;;4.43;;
8312;SDS011;4194;43.408;24.626;2023-08-07T04:15:33;4.70;;;4.30;;
8312;SDS011;4194;43.408;24.626;2023-08-07T04:17:59;4.67;;;4.27;;
8312;SDS011;4194;43.408;24.626;2023-08-07T04:20:24;6.23;;;4.43;;
8312;SDS011;4194;43.408;24.626;2023-08-07T04:22:50;4.80;;;4.47;;
8312;SDS011;4194;43.408;24.626;2023-08-07T04:25:16;4.80;;;4.03;;
8312;SDS011;4194;43.408;24.626;2023-08-07T04:27:41;6.97;;;4.20;;
8312;SDS011;4194;43.408;24.626;2023-08-07T04:30:07;6.57;;;4.50;;
8312;SDS011;4194;43.408;24.626;2023-08-07T04:32:33;4.47;;;4.17;;
8312;SDS011;4194;43.408;24.626;2023-08-07T04:34:58;4.83;;;4.33;;
8312;SDS011;4194;43.408;24.626;2023-08-07T04:37:24;4.53;;;4.23;;
8312;SDS011;4194;43.408;24.626;2023-08-07T04:39:50;5.17;;;4.40;;
8312;SDS011;4194;43.408;24.626;2023-08-07T04:42:16;4.73;;;3.83;;
8312;SDS011;4194;43.408;24.626;2023-08-07T04:44:42;4.70;;;4.30;;
8312;SDS011;4194;43.408;24.626;2023-08-07T04:47:07;3.83;;;3.57;;
8312;SDS011;4194;43.408;24.626;2023-08-07T04:49:33;6.70;;;4.43;;
8312;SDS011;4194;43.408;24.626;2023-08-07T04:51:59;4.93;;;3.93;;
8312;SDS011;4194;43.408;24.626;2023-08-07T04:54:24;3.93;;;3.63;;
8312;SDS011;4194;43.408;24.626;2023-08-07T04:56:50;7.07;;;4.03;;
8312;SDS011;4194;43.408;24.626;2023-08-07T04:59:16;4.13;;;3.73;;
8312;SDS011;4194;43.408;24.626;2023-08-07T05:01:41;4.10;;;3.80;;
8312;SDS011;4194;43.408;24.626;2023-08-07T05:04:07;4.10;;;3.80;;
8312;SDS011;4194;43.408;24.626;2023-08-07T05:06:33;4.57;;;3.70;;
8312;SDS011;4194;43.408;24.626;2023-08-07T05:08:58;4.20;;;3.90;;
8312;SDS011;4194;43.408;24.626;2023-08-07T05:11:24;4.20;;;3.90;;
8312;SDS011;4194;43.408;24.626;2023-08-07T05:13:50;4.33;;;3.93;;
8312;SDS011;4194;43.408;24.626;2023-08-07T05:16:15;4.17;;;3.87;;
8312;SDS011;4194;43.408;24.626;2023-08-07T05:18:43;4.70;;;4.30;;
8312;SDS011;4194;43.408;24.626;2023-08-07T05:21:09;4.97;;;4.30;;
8312;SDS011;4194;43.408;24.626;2023-08-07T05:23:35;4.27;;;3.97;;
8312;SDS011;4194;43.408;24.626;2023-08-07T05:26:00;4.67;;;3.70;;
8312;SDS011;4194;43.408;24.626;2023-08-07T05:28:27;4.77;;;3.80;;
8312;SDS011;4194;43.408;24.626;2023-08-07T05:30:52;5.57;;;4.03;;
8312;SDS011;4194;43.408;24.626;2023-08-07T05:33:18;4.10;;;3.80;;
8312;SDS011;4194;43.408;24.626;2023-08-07T05:35:44;5.00;;;4.10;;
8312;SDS011;4194;43.408;24.626;2023-08-07T05:38:10;3.73;;;3.53;;
8312;SDS011;4194;43.408;24.626;2023-08-07T05:40:35;3.50;;;3.20;;
8312;SDS011;4194;43.408;24.626;2023-08-07T05:43:01;3.57;;;3.27;;
8312;SDS011;4194;43.408;24.626;2023-08-07T05:45:27;3.87;;;3.47;;
8312;SDS011;4194;43.408;24.626;2023-08-07T05:47:53;4.67;;;3.47;;
8312;SDS011;4194;43.408;24.626;2023-08-07T05:50:19;3.17;;;2.97;;
8312;SDS011;4194;43.408;24.626;2023-08-07T05:52:44;3.63;;;3.33;;
8312;SDS011;4194;43.408;24.626;2023-08-07T05:55:10;3.53;;;3.23;;
8312;SDS011;4194;43.408;24.626;2023-08-07T05:57:36;4.17;;;3.17;;
8312;SDS011;4194;43.408;24.626;2023-08-07T06:00:02;3.43;;;3.13;;
8312;SDS011;4194;43.408;24.626;2023-08-07T06:02:28;3.10;;;2.90;;
8312;SDS011;4194;43.408;24.626;2023-08-07T06:04:53;4.10;;;3.40;;
8312;SDS011;4194;43.408;24.626;2023-08-07T06:07:19;2.93;;;2.73;;
8312;SDS011;4194;43.408;24.626;2023-08-07T06:09:45;3.83;;;2.70;;
8312;SDS011;4194;43.408;24.626;2023-08-07T06:12:11;3.90;;;2.87;;
8312;SDS011;4194;43.408;24.626;2023-08-07T06:14:37;5.53;;;2.50;;
8312;SDS011;4194;43.408;24.626;2023-08-07T06:17:03;3.47;;;2.70;;
8312;SDS011;4194;43.408;24.626;2023-08-07T06:19:29;3.33;;;2.53;;
8312;SDS011;4194;43.408;24.626;2023-08-07T06:21:55;2.57;;;2.17;;
8312;SDS011;4194;43.408;24.626;2023-08-07T06:24:21;2.83;;;2.20;;
8312;SDS011;4194;43.408;24.626;2023-08-07T06:26:47;4.53;;;2.10;;
8312;SDS011;4194;43.408;24.626;2023-08-07T06:29:12;2.53;;;2.33;;
8312;SDS011;4194;43.408;24.626;2023-08-07T06:31:38;3.30;;;2.30;;
8312;SDS011;4194;43.408;24.626;2023-08-07T06:34:04;3.57;;;2.10;;
8312;SDS011;4194;43.408;24.626;2023-08-07T06:36:29;3.53;;;1.83;;
8312;SDS011;4194;43.408;24.626;2023-08-07T06:38:55;2.00;;;1.90;;
8312;SDS011;4194;43.408;24.626;2023-08-07T06:41:21;2.07;;;1.80;;
8312;SDS011;4194;43.408;24.626;2023-08-07T06:43:46;1.67;;;1.57;;
8312;SDS011;4194;43.408;24.626;2023-08-07T06:46:12;2.27;;;2.07;;
8312;SDS011;4194;43.408;24.626;2023-08-07T06:48:38;5.33;;;2.10;;
8312;SDS011;4194;43.408;24.626;2023-08-07T06:51:03;2.80;;;2.00;;
8312;SDS011;4194;43.408;24.626;2023-08-07T06:53:29;1.80;;;1.70;;
8312;SDS011;4194;43.408;24.626;2023-08-07T06:55:55;3.40;;;2.20;;
8312;SDS011;4194;43.408;24.626;2023-08-07T06:58:20;6.90;;;2.00;;
8312;SDS011;4194;43.408;24.626;2023-08-07T07:00:46;2.43;;;2.23;;
8312;SDS011;4194;43.408;24.626;2023-08-07T07:03:12;2.37;;;2.13;;
8312;SDS011;4194;43.408;24.626;2023-08-07T07:05:37;2.13;;;1.93;;
8312;SDS011;4194;43.408;24.626;2023-08-07T07:08:03;2.13;;;1.90;;
8312;SDS011;4194;43.408;24.626;2023-08-07T07:10:29;3.37;;;1.77;;
8312;SDS011;4194;43.408;24.626;2023-08-07T07:12:55;3.13;;;1.80;;
8312;SDS011;4194;43.408;24.626;2023-08-07T07:15:20;1.97;;;1.83;;
8312;SDS011;4194;43.408;24.626;2023-08-07T07:17:46;2.97;;;1.93;;
8312;SDS011;4194;43.408;24.626;2023-08-07T07:20:12;2.13;;;1.80;;
8312;SDS011;4194;43.408;24.626;2023-08-07T07:22:38;2.10;;;1.97;;
8312;SDS011;4194;43.408;24.626;2023-08-07T07:25:03;2.97;;;2.30;;
8312;SDS011;4194;43.408;24.626;2023-08-07T07:27:29;3.60;;;2.10;;
8312;SDS011;4194;43.408;24.626;2023-08-07T07:29:55;2.83;;;1.87;;
8312;SDS011;4194;43.408;24.626;2023-08-07T07:32:21;1.80;;;1.70;;
8312;SDS011;4194;43.408;24.626;2023-08-07T07:34:46;1.90;;;1.70;;
8312;SDS011;4194;43.408;24.626;2023-08-07T07:37:13;1.87;;;1.70;;
8312;SDS011;4194;43.408;24.626;2023-08-07T07:39:39;2.40;;;1.53;;
8312;SDS011;4194;43.408;24.626;2023-08-07T07:42:06;2.90;;;1.80;;
8312;SDS011;4194;43.408;24.626;2023-08-07T07:44:32;3.33;;;1.50;;
8312;SDS011;4194;43.408;24.626;2023-08-07T07:47:00;1.73;;;1.63;;
8312;SDS011;4194;43.408;24.626;2023-08-07T07:49:26;2.10;;;1.93;;
8312;SDS011;4194;43.408;24.626;2023-08-07T07:51:51;2.10;;;2.00;;
8312;SDS011;4194;43.408;24.626;2023-08-07T07:54:17;1.83;;;1.60;;
8312;SDS011;4194;43.408;24.626;2023-08-07T07:56:42;3.00;;;2.07;;
8312;SDS011;4194;43.408;24.626;2023-08-07T07:59:08;3.40;;;2.00;;
8312;SDS011;4194;43.408;24.626;2023-08-07T08:01:34;3.20;;;2.20;;
8312;SDS011;4194;43.408;24.626;2023-08-07T08:04:00;3.27;;;1.90;;
8312;SDS011;4194;43.408;24.626;2023-08-07T08:06:26;2.17;;;1.83;;
8312;SDS011;4194;43.408;24.626;2023-08-07T08:08:52;1.80;;;1.70;;
8312;SDS011;4194;43.408;24.626;2023-08-07T08:11:18;2.33;;;2.13;;
8312;SDS011;4194;43.408;24.626;2023-08-07T08:13:43;5.53;;;1.97;;
8312;SDS011;4194;43.408;24.626;2023-08-07T08:16:09;2.43;;;1.80;;
8312;SDS011;4194;43.408;24.626;2023-08-07T08:18:35;3.67;;;1.97;;
8312;SDS011;4194;43.408;24.626;2023-08-07T08:21:00;2.00;;;1.90;;
8312;SDS011;4194;43.408;24.626;2023-08-07T08:23:27;3.93;;;2.10;;
8312;SDS011;4194;43.408;24.626;2023-08-07T08:25:53;3.20;;;2.13;;
8312;SDS011;4194;43.408;24.626;2023-08-07T08:28:19;1.83;;;1.73;;
8312;SDS011;4194;43.408;24.626;2023-08-07T08:30:44;1.50;;;1.37;;
8312;SDS011;4194;43.408;24.626;2023-08-07T08:33:10;1.70;;;1.60;;
8312;SDS011;4194;43.408;24.626;2023-08-07T08:35:39;1.77;;;1.67;;
8312;SDS011;4194;43.408;24.626;2023-08-07T08:38:05;8.27;;;1.53;;
8312;SDS011;4194;43.408;24.626;2023-08-07T08:40:31;2.30;;;1.53;;
8312;SDS011;4194;43.408;24.626;2023-08-07T08:42:59;5.30;;;1.60;;
8312;SDS011;4194;43.408;24.626;2023-08-07T08:45:26;1.70;;;1.40;;
8312;SDS011;4194;43.408;24.626;2023-08-07T08:47:54;2.37;;;2.10;;
8312;SDS011;4194;43.408;24.626;2023-08-07T08:50:23;1.57;;;1.47;;
8312;SDS011;4194;43.408;24.626;2023-08-07T08:52:49;1.30;;;1.20;;
8312;SDS011;4194;43.408;24.626;2023-08-07T08:55:19;2.60;;;1.23;;
8312;SDS011;4194;43.408;24.626;2023-08-07T08:57:46;1.27;;;1.03;;
8312;SDS011;4194;43.408;24.626;2023-08-07T09:00:13;0.90;;;0.90;;
8312;SDS011;4194;43.408;24.626;2023-08-07T09:02:47;1.50;;;1.00;;
8312;SDS011;4194;43.408;24.626;2023-08-07T09:05:14;1.20;;;1.10;;
8312;SDS011;4194;43.408;24.626;2023-08-07T09:07:41;1.10;;;1.00;;
8312;SDS011;4194;43.408;24.626;2023-08-07T09:10:07;1.00;;;0.90;;
8312;SDS011;4194;43.408;24.626;2023-08-07T09:12:37;1.20;;;0.90;;
8312;SDS011;4194;43.408;24.626;2023-08-07T09:15:05;1.57;;;0.80;;
8312;SDS011;4194;43.408;24.626;2023-08-07T09:17:33;1.83;;;1.10;;
8312;SDS011;4194;43.408;24.626;2023-08-07T09:20:04;0.97;;;0.97;;
8312;SDS011;4194;43.408;24.626;2023-08-07T09:22:31;0.70;;;0.70;;
8312;SDS011;4194;43.408;24.626;2023-08-07T09:24:57;1.03;;;0.93;;
8312;SDS011;4194;43.408;24.626;2023-08-07T09:27:25;0.57;;;0.57;;
8312;SDS011;4194;43.408;24.626;2023-08-07T09:29:51;2.87;;;0.73;;
8312;SDS011;4194;43.408;24.626;2023-08-07T09:32:19;0.80;;;0.70;;
8312;SDS011;4194;43.408;24.626;2023-08-07T09:34:47;0.67;;;0.63;;
8312;SDS011;4194;43.408;24.626;2023-08-07T09:37:14;0.50;;;0.50;;
8312;SDS011;4194;43.408;24.626;2023-08-07T09:39:40;0.57;;;0.50;;
8312;SDS011;4194;43.408;24.626;2023-08-07T09:42:13;0.53;;;0.53;;
8312;SDS011;4194;43.408;24.626;2023-08-07T09:44:40;3.03;;;0.60;;
8312;SDS011;4194;43.408;24.626;2023-08-07T09:47:13;3.30;;;0.60;;
8312;SDS011;4194;43.408;24.626;2023-08-07T09:49:43;0.60;;;0.60;;
8312;SDS011;4194;43.408;24.626;2023-08-07T09:52:11;0.70;;;0.70;;
8312;SDS011;4194;43.408;24.626;2023-08-07T09:54:43;0.70;;;0.50;;
8312;SDS011;4194;43.408;24.626;2023-08-07T09:57:09;2.17;;;0.60;;
8312;SDS011;4194;43.408;24.626;2023-08-07T09:59:34;1.23;;;0.70;;
8312;SDS011;4194;43.408;24.626;2023-08-07T10:02:01;0.80;;;0.80;;
8312;SDS011;4194;43.408;24.626;2023-08-07T10:04:27;0.80;;;0.80;;
8312;SDS011;4194;43.408;24.626;2023-08-07T10:06:53;1.23;;;0.70;;
8312;SDS011;4194;43.408;24.626;2023-08-07T10:09:25;0.80;;;0.80;;
8312;SDS011;4194;43.408;24.626;2023-08-07T10:11:52;0.77;;;0.77;;
8312;SDS011;4194;43.408;24.626;2023-08-07T10:14:19;3.13;;;0.60;;
8312;SDS011;4194;43.408;24.626;2023-08-07T10:16:46;0.50;;;0.50;;
8312;SDS011;4194;43.408;24.626;2023-08-07T10:19:14;0.90;;;0.70;;
8312;SDS011;4194;43.408;24.626;2023-08-07T10:21:40;0.50;;;0.50;;
8312;SDS011;4194;43.408;24.626;2023-08-07T10:24:07;0.57;;;0.57;;
8312;SDS011;4194;43.408;24.626;2023-08-07T10:26:34;2.60;;;0.80;;
8312;SDS011;4194;43.408;24.626;2023-08-07T10:29:05;1.33;;;0.80;;
8312;SDS011;4194;43.408;24.626;2023-08-07T10:31:34;0.73;;;0.60;;
8312;SDS011;4194;43.408;24.626;2023-08-07T10:34:01;0.90;;;0.90;;
8312;SDS011;4194;43.408;24.626;2023-08-07T10:36:33;0.70;;;0.70;;
8312;SDS011;4194;43.408;24.626;2023-08-07T10:39:07;1.27;;;0.80;;
8312;SDS011;4194;43.408;24.626;2023-08-07T10:41:47;0.83;;;0.70;;
8312;SDS011;4194;43.408;24.626;2023-08-07T10:44:21;1.30;;;0.60;;
8312;SDS011;4194;43.408;24.626;2023-08-07T10:46:49;0.60;;;0.60;;
8312;SDS011;4194;43.408;24.626;2023-08-07T10:49:32;2.10;;;0.70;;
8312;SDS011;4194;43.408;24.626;2023-08-07T10:54:38;0.70;;;0.60;;
8312;SDS011;4194;43.408;24.626;2023-08-07T10:57:09;1.80;;;1.70;;
8312;SDS011;4194;43.408;24.626;2023-08-07T10:59:37;1.63;;;0.80;;
8312;SDS011;4194;43.408;24.626;2023-08-07T11:02:03;3.10;;;0.60;;
8312;SDS011;4194;43.408;24.626;2023-08-07T11:04:36;1.03;;;0.70;;
8312;SDS011;4194;43.408;24.626;2023-08-07T11:07:02;1.27;;;0.77;;
8312;SDS011;4194;43.408;24.626;2023-08-07T11:09:28;2.33;;;0.90;;
8312;SDS011;4194;43.408;24.626;2023-08-07T11:11:54;1.45;;;0.70;;
8312;SDS011;4194;43.408;24.626;2023-08-07T11:14:19;0.95;;;0.63;;
8312;SDS011;4194;43.408;24.626;2023-08-07T11:16:46;0.65;;;0.65;;
8312;SDS011;4194;43.408;24.626;2023-08-07T11:19:13;1.52;;;0.50;;
8312;SDS011;4194;43.408;24.626;2023-08-07T11:21:40;1.45;;;0.70;;
8312;SDS011;4194;43.408;24.626;2023-08-07T11:24:07;2.53;;;0.70;;
8312;SDS011;4194;43.408;24.626;2023-08-07T11:26:33;1.55;;;0.73;;
8312;SDS011;4194;43.408;24.626;2023-08-07T11:28:59;0.60;;;0.60;;
8312;SDS011;4194;43.408;24.626;2023-08-07T11:31:25;1.58;;;0.80;;
8312;SDS011;4194;43.408;24.626;2023-08-07T11:33:51;0.93;;;0.73;;
8312;SDS011;4194;43.408;24.626;2023-08-07T11:36:17;0.73;;;0.60;;
8312;SDS011;4194;43.408;24.626;2023-08-07T11:38:44;0.60;;;0.52;;
8312;SDS011;4194;43.408;24.626;2023-08-07T11:41:11;1.50;;;0.90;;
8312;SDS011;4194;43.408;24.626;2023-08-07T11:43:38;1.35;;;0.30;;
8312;SDS011;4194;43.408;24.626;2023-08-07T11:46:05;0.73;;;0.73;;
8312;SDS011;4194;43.408;24.626;2023-08-07T11:48:35;0.52;;;0.50;;
8312;SDS011;4194;43.408;24.626;2023-08-07T11:51:03;2.15;;;0.50;;
8312;SDS011;4194;43.408;24.626;2023-08-07T11:53:33;0.70;;;0.70;;
8312;SDS011;4194;43.408;24.626;2023-08-07T11:56:11;1.35;;;0.68;;
8312;SDS011;4194;43.408;24.626;2023-08-07T11:58:41;0.75;;;0.75;;
8312;SDS011;4194;43.408;24.626;2023-08-07T12:01:10;0.63;;;0.63;;
8312;SDS011;4194;43.408;24.626;2023-08-07T12:03:37;3.08;;;0.50;;
8312;SDS011;4194;43.408;24.626;2023-08-07T12:06:04;0.93;;;0.60;;
8312;SDS011;4194;43.408;24.626;2023-08-07T12:08:39;0.60;;;0.60;;
8312;SDS011;4194;43.408;24.626;2023-08-07T12:11:06;0.80;;;0.80;;
8312;SDS011;4194;43.408;24.626;2023-08-07T12:13:36;0.60;;;0.60;;
8312;SDS011;4194;43.408;24.626;2023-08-07T12:16:09;0.50;;;0.50;;
8312;SDS011;4194;43.408;24.626;2023-08-07T12:18:42;0.60;;;0.60;;
8312;SDS011;4194;43.408;24.626;2023-08-07T12:21:16;0.70;;;0.63;;
8312;SDS011;4194;43.408;24.626;2023-08-07T12:23:44;0.60;;;0.57;;
8312;SDS011;4194;43.408;24.626;2023-08-07T12:26:15;0.55;;;0.55;;
8312;SDS011;4194;43.408;24.626;2023-08-07T12:28:42;0.60;;;0.60;;
8312;SDS011;4194;43.408;24.626;2023-08-07T12:31:08;0.60;;;0.60;;
8312;SDS011;4194;43.408;24.626;2023-08-07T12:33:34;1.40;;;0.70;;
8312;SDS011;4194;43.408;24.626;2023-08-07T12:36:00;0.52;;;0.52;;
8312;SDS011;4194;43.408;24.626;2023-08-07T12:38:26;0.57;;;0.52;;
8312;SDS011;4194;43.408;24.626;2023-08-07T12:40:53;1.02;;;0.68;;
8312;SDS011;4194;43.408;24.626;2023-08-07T12:43:19;1.33;;;0.68;;
8312;SDS011;4194;43.408;24.626;2023-08-07T12:45:44;0.77;;;0.77;;
8312;SDS011;4194;43.408;24.626;2023-08-07T12:48:10;0.50;;;0.50;;
8312;SDS011;4194;43.408;24.626;2023-08-07T12:50:36;1.85;;;0.65;;
8312;SDS011;4194;43.408;24.626;2023-08-07T12:53:02;1.05;;;0.60;;
8312;SDS011;4194;43.408;24.626;2023-08-07T12:55:28;0.52;;;0.52;;
8312;SDS011;4194;43.408;24.626;2023-08-07T12:57:54;1.45;;;0.57;;
8312;SDS011;4194;43.408;24.626;2023-08-07T13:00:21;2.15;;;0.50;;
8312;SDS011;4194;43.408;24.626;2023-08-07T13:02:48;1.15;;;0.70;;
8312;SDS011;4194;43.408;24.626;2023-08-07T13:05:14;1.27;;;0.50;;
8312;SDS011;4194;43.408;24.626;2023-08-07T13:07:42;0.75;;;0.68;;
8312;SDS011;4194;43.408;24.626;2023-08-07T13:10:09;4.22;;;0.70;;
8312;SDS011;4194;43.408;24.626;2023-08-07T13:12:40;0.63;;;0.60;;
8312;SDS011;4194;43.408;24.626;2023-08-07T13:15:08;0.60;;;0.50;;
8312;SDS011;4194;43.408;24.626;2023-08-07T13:17:38;1.77;;;0.50;;
8312;SDS011;4194;43.408;24.626;2023-08-07T13:20:04;0.88;;;0.70;;
8312;SDS011;4194;43.408;24.626;2023-08-07T13:22:36;1.92;;;0.70;;
8312;SDS011;4194;43.408;24.626;2023-08-07T13:25:02;0.70;;;0.70;;
8312;SDS011;4194;43.408;24.626;2023-08-07T13:27:29;0.60;;;0.60;;
8312;SDS011;4194;43.408;24.626;2023-08-07T13:29:56;0.50;;;0.50;;
8312;SDS011;4194;43.408;24.626;2023-08-07T13:32:21;1.50;;;0.55;;
8312;SDS011;4194;43.408;24.626;2023-08-07T13:34:47;1.42;;;0.65;;
8312;SDS011;4194;43.408;24.626;2023-08-07T13:37:13;1.15;;;0.63;;
8312;SDS011;4194;43.408;24.626;2023-08-07T13:39:40;0.73;;;0.60;;
8312;SDS011;4194;43.408;24.626;2023-08-07T13:42:08;1.20;;;0.55;;
8312;SDS011;4194;43.408;24.626;2023-08-07T13:44:35;0.70;;;0.70;;
8312;SDS011;4194;43.408;24.626;2023-08-07T13:47:04;0.52;;;0.52;;
8312;SDS011;4194;43.408;24.626;2023-08-07T13:49:30;0.60;;;0.60;;
8312;SDS011;4194;43.408;24.626;2023-08-07T13:51:56;1.60;;;0.70;;
8312;SDS011;4194;43.408;24.626;2023-08-07T13:54:22;1.60;;;0.82;;
8312;SDS011;4194;43.408;24.626;2023-08-07T13:56:48;1.02;;;0.75;;
8312;SDS011;4194;43.408;24.626;2023-08-07T13:59:13;0.60;;;0.60;;
8312;SDS011;4194;43.408;24.626;2023-08-07T14:01:39;1.70;;;0.70;;
8312;SDS011;4194;43.408;24.626;2023-08-07T14:04:05;0.70;;;0.65;;
8312;SDS011;4194;43.408;24.626;2023-08-07T14:06:31;1.38;;;0.85;;
8312;SDS011;4194;43.408;24.626;2023-08-07T14:08:56;0.70;;;0.70;;
8312;SDS011;4194;43.408;24.626;2023-08-07T14:11:22;0.70;;;0.70;;
8312;SDS011;4194;43.408;24.626;2023-08-07T14:13:52;1.55;;;0.60;;
8312;SDS011;4194;43.408;24.626;2023-08-07T14:16:18;0.80;;;0.80;;
8312;SDS011;4194;43.408;24.626;2023-08-07T14:18:44;0.77;;;0.77;;
8312;SDS011;4194;43.408;24.626;2023-08-07T14:21:09;0.60;;;0.60;;
8312;SDS011;4194;43.408;24.626;2023-08-07T14:23:35;0.70;;;0.70;;
8312;SDS011;4194;43.408;24.626;2023-08-07T14:26:01;0.98;;;0.80;;
8312;SDS011;4194;43.408;24.626;2023-08-07T14:28:27;1.00;;;0.70;;
8312;SDS011;4194;43.408;24.626;2023-08-07T14:30:53;0.55;;;0.55;;
8312;SDS011;4194;43.408;24.626;2023-08-07T14:33:22;1.38;;;0.75;;
8312;SDS011;4194;43.408;24.626;2023-08-07T14:35:48;0.70;;;0.70;;
8312;SDS011;4194;43.408;24.626;2023-08-07T14:38:13;0.73;;;0.73;;
8312;SDS011;4194;43.408;24.626;2023-08-07T14:40:39;0.70;;;0.68;;
8312;SDS011;4194;43.408;24.626;2023-08-07T14:43:06;1.17;;;0.90;;
8312;SDS011;4194;43.408;24.626;2023-08-07T14:45:32;1.83;;;0.80;;
8312;SDS011;4194;43.408;24.626;2023-08-07T14:47:57;1.03;;;0.80;;
8312;SDS011;4194;43.408;24.626;2023-08-07T14:50:23;0.50;;;0.50;;
8312;SDS011;4194;43.408;24.626;2023-08-07T14:52:49;1.90;;;0.70;;
8312;SDS011;4194;43.408;24.626;2023-08-07T14:55:14;0.73;;;0.53;;
8312;SDS011;4194;43.408;24.626;2023-08-07T14:57:40;0.63;;;0.60;;
8312;SDS011;4194;43.408;24.626;2023-08-07T15:00:06;1.40;;;1.10;;
8312;SDS011;4194;43.408;24.626;2023-08-07T15:02:33;0.77;;;0.77;;
8312;SDS011;4194;43.408;24.626;2023-08-07T15:04:59;0.73;;;0.70;;
8312;SDS011;4194;43.408;24.626;2023-08-07T15:07:25;0.90;;;0.70;;
8312;SDS011;4194;43.408;24.626;2023-08-07T15:09:50;1.03;;;0.60;;